createdAt,value
2022-09-06T00:00:58.146Z,101107.09
2022-09-06T00:05:51.805Z,101099.59
2022-09-06T00:10:44.899Z,101089.44
2022-09-06T00:15:38.092Z,101089.00
2022-09-06T00:20:32.520Z,101100.78
2022-09-06T00:25:26.721Z,101079.25
2022-09-06T00:30:20.275Z,101072.06
2022-09-06T00:35:14.434Z,101092.13
2022-09-06T00:40:11.011Z,101083.34
2022-09-06T00:45:08.323Z,101076.59
2022-09-06T00:50:04.054Z,101089.31
2022-09-06T00:54:59.418Z,101072.47
2022-09-06T00:59:56.023Z,101082.91
2022-09-06T01:04:52.118Z,101069.19
2022-09-06T01:10:14.869Z,101092.53
2022-09-06T01:15:14.579Z,101067.75
2022-09-06T01:20:12.982Z,101080.75
2022-09-06T01:25:06.075Z,101097.16
2022-09-06T01:30:15.638Z,101090.97
2022-09-06T01:35:28.732Z,101094.47
2022-09-06T01:40:22.327Z,101095.34
2022-09-06T01:45:18.776Z,101092.78
2022-09-06T01:50:45.888Z,101086.59
2022-09-06T01:55:48.311Z,101097.31
2022-09-06T02:01:07.394Z,101080.38
2022-09-06T02:06:09.749Z,101072.72
2022-09-06T02:11:05.756Z,101071.31
2022-09-06T02:16:05.302Z,101090.25
2022-09-06T02:21:01.403Z,101073.31
2022-09-06T02:25:59.800Z,101050.25
2022-09-06T02:31:01.007Z,101053.75
2022-09-06T02:35:55.411Z,101054.63
2022-09-06T02:40:50.327Z,101072.72
2022-09-06T02:45:44.682Z,101049.53
2022-09-06T02:50:38.424Z,101043.34
2022-09-06T02:55:31.739Z,101055.72
2022-09-06T03:00:25.749Z,101058.16
2022-09-06T03:05:19.701Z,101054.31
2022-09-06T03:10:13.654Z,101058.81
2022-09-06T03:15:07.961Z,101079.59
2022-09-06T03:20:02.391Z,101059.94
2022-09-06T03:24:56.244Z,101058.22
2022-09-06T03:29:50.199Z,101055.53
2022-09-06T03:34:44.307Z,101069.84
2022-09-06T03:39:38.106Z,101072.69
2022-09-06T03:44:32.499Z,101054.13
2022-09-06T03:49:26.103Z,101050.31
2022-09-06T03:54:20.186Z,101046.81
2022-09-06T03:59:14.742Z,101071.13
2022-09-06T04:04:08.792Z,101063.88
2022-09-06T04:09:02.711Z,101076.59
2022-09-06T04:13:56.472Z,101079.56
2022-09-06T04:18:50.299Z,101087.59
2022-09-06T04:23:43.928Z,101080.38
2022-09-06T04:28:36.440Z,101079.56
2022-09-06T04:33:30.486Z,101081.38
2022-09-06T04:38:25.376Z,101090.38
2022-09-06T04:43:18.843Z,101102.38
2022-09-06T04:48:13.015Z,101101.50
2022-09-06T04:53:06.643Z,101091.81
2022-09-06T04:58:00.954Z,101105.63
2022-09-06T05:02:54.613Z,101119.31
2022-09-06T05:07:48.773Z,101100.03
2022-09-06T05:12:44.397Z,101102.53
2022-09-06T05:17:38.487Z,101106.34
2022-09-06T05:22:32.473Z,101113.41
2022-09-06T05:27:26.165Z,101113.50
2022-09-06T05:32:20.157Z,101127.59
2022-09-06T05:37:13.225Z,101104.75
2022-09-06T05:42:07.735Z,101114.81
2022-09-06T05:47:01.621Z,101124.81
2022-09-06T05:51:55.608Z,101138.34
2022-09-06T05:56:53.469Z,101135.53
2022-09-06T06:01:54.052Z,101122.88
2022-09-06T06:06:49.785Z,101149.63
2022-09-06T06:11:43.678Z,101140.88
2022-09-06T06:16:36.329Z,101127.13
2022-09-06T06:21:32.066Z,101147.06
2022-09-06T06:26:26.283Z,101134.78
2022-09-06T06:31:24.088Z,101098.53
2022-09-06T06:36:17.209Z,101135.34
2022-09-06T06:41:16.344Z,101120.25
2022-09-06T06:46:18.589Z,101141.59
2022-09-06T06:51:16.405Z,101134.41
2022-09-06T06:56:18.724Z,101118.00
2022-09-06T07:01:13.273Z,101121.31
2022-09-06T07:11:07.859Z,101102.56
2022-09-06T07:16:21.438Z,101123.50
2022-09-06T07:21:37.932Z,101103.66
2022-09-06T07:26:33.756Z,101126.41
2022-09-06T07:36:45.413Z,101085.41
2022-09-06T07:41:40.655Z,101134.91
2022-09-06T07:46:36.740Z,101131.75
2022-09-06T07:51:32.604Z,101105.59
2022-09-06T07:56:35.133Z,101115.94
2022-09-06T08:01:39.988Z,101097.53
2022-09-06T08:11:57.363Z,101120.97
2022-09-06T08:16:53.703Z,101121.81
2022-09-06T08:21:51.429Z,101100.19
2022-09-06T08:26:52.513Z,101114.22
2022-09-06T08:31:50.641Z,101115.94
2022-09-06T08:36:48.864Z,101122.16
2022-09-06T08:41:53.303Z,101128.94
2022-09-06T08:47:09.359Z,101097.81
2022-09-06T08:52:25.485Z,101130.78
2022-09-06T08:58:21.889Z,101111.66
2022-09-06T09:03:31.063Z,101136.50
2022-09-06T09:08:31.221Z,101113.09
2022-09-06T09:14:09.757Z,101104.44
2022-09-06T09:19:06.394Z,101096.03
2022-09-06T09:24:05.208Z,101060.56
2022-09-06T09:29:20.817Z,101082.38
2022-09-06T09:34:44.591Z,101083.72
2022-09-06T09:39:52.655Z,101078.88
2022-09-06T09:44:49.470Z,101064.75
2022-09-06T09:49:44.181Z,101079.81
2022-09-06T09:54:40.636Z,101045.66
2022-09-06T09:59:47.450Z,101074.91
2022-09-06T10:04:47.674Z,101067.47
2022-09-06T10:09:45.849Z,101065.66
2022-09-06T10:15:07.266Z,101057.72
2022-09-06T10:20:08.597Z,101052.50
2022-09-06T10:25:10.426Z,101055.75
2022-09-06T10:30:09.745Z,101050.00
2022-09-06T10:35:10.431Z,101052.81
2022-09-06T10:40:27.957Z,101016.34
2022-09-06T10:45:21.172Z,101043.09
2022-09-06T10:50:16.948Z,101021.50
2022-09-06T10:55:16.312Z,100994.34
2022-09-06T11:00:18.746Z,100985.75
2022-09-06T11:10:41.176Z,100975.78
2022-09-06T11:15:54.656Z,100992.03
2022-09-06T11:20:57.077Z,101000.25
2022-09-06T11:26:14.615Z,100985.44
2022-09-06T11:36:39.610Z,100988.28
2022-09-06T11:41:36.696Z,100962.53
2022-09-06T11:46:36.632Z,100972.47
2022-09-06T11:51:36.339Z,100972.47
2022-09-06T11:56:36.027Z,100965.41
2022-09-06T12:01:28.826Z,100956.38
2022-09-06T12:06:25.355Z,100953.59
2022-09-06T12:11:38.387Z,100943.97
2022-09-06T12:16:56.250Z,100933.84
2022-09-06T12:21:54.005Z,100908.94
2022-09-06T12:26:55.785Z,100917.88
2022-09-06T12:31:54.399Z,100884.41
2022-09-06T12:37:08.115Z,100890.91
2022-09-06T12:42:13.614Z,100909.16
2022-09-06T12:47:11.700Z,100892.22
2022-09-06T12:52:16.659Z,100869.63
2022-09-06T12:57:28.307Z,100880.25
2022-09-06T13:02:42.135Z,100865.84
2022-09-06T13:07:45.140Z,100862.03
2022-09-06T13:12:43.795Z,100830.00
2022-09-06T13:17:38.548Z,100808.28
2022-09-06T13:22:48.175Z,100844.16
2022-09-06T13:27:46.736Z,100806.44
2022-09-06T13:32:52.597Z,100818.03
2022-09-06T13:37:50.265Z,100817.03
2022-09-06T13:42:44.416Z,100793.75
2022-09-06T13:47:38.529Z,100781.50
2022-09-06T13:52:32.852Z,100791.38
2022-09-06T13:57:26.615Z,100768.78
2022-09-06T14:02:21.629Z,100781.94
2022-09-06T14:07:15.442Z,100779.94
2022-09-06T14:12:10.881Z,100761.44
2022-09-06T14:17:04.501Z,100775.03
2022-09-06T14:21:58.741Z,100751.84
2022-09-06T14:26:52.949Z,100756.69
2022-09-06T14:31:46.939Z,100762.75
2022-09-06T14:36:40.534Z,100734.66
2022-09-06T14:41:34.369Z,100761.47
2022-09-06T14:46:29.862Z,100766.56
2022-09-06T14:51:24.667Z,100752.16
2022-09-06T14:56:19.891Z,100748.50
2022-09-06T15:01:15.593Z,100738.19
2022-09-06T15:06:11.865Z,100711.94
2022-09-06T15:11:09.500Z,100718.00
2022-09-06T15:16:02.776Z,100700.50
2022-09-06T15:20:55.620Z,100714.16
2022-09-06T15:25:53.069Z,100709.75
2022-09-06T15:30:47.675Z,100701.56
2022-09-06T15:35:42.458Z,100704.41
2022-09-06T15:40:36.725Z,100682.94
2022-09-06T15:45:30.559Z,100696.03
2022-09-06T15:50:47.617Z,100692.22
2022-09-06T15:55:55.253Z,100678.66
2022-09-06T16:00:53.954Z,100662.28
2022-09-06T16:11:08.020Z,100680.72
2022-09-06T16:16:02.904Z,100680.19
2022-09-06T16:20:57.809Z,100677.78
2022-09-06T16:25:55.860Z,100671.59
2022-09-06T16:30:49.723Z,100687.25
2022-09-06T16:35:44.275Z,100651.88
2022-09-06T16:40:38.388Z,100703.94
2022-09-06T16:45:32.949Z,100691.66
2022-09-06T16:50:27.059Z,100673.63
2022-09-06T16:55:21.167Z,100695.91
2022-09-06T17:00:16.444Z,100671.91
2022-09-06T17:05:11.128Z,100689.66
2022-09-06T17:10:07.437Z,100682.06
2022-09-06T17:15:00.488Z,100680.25
2022-09-06T17:19:58.486Z,100686.84
2022-09-06T17:24:53.459Z,100676.94
2022-09-06T17:29:46.965Z,100667.38
2022-09-06T17:34:41.309Z,100662.81
2022-09-06T17:39:36.120Z,100663.69
2022-09-06T17:44:29.653Z,100650.41
2022-09-06T17:49:23.161Z,100647.47
2022-09-06T17:54:17.784Z,100658.78
2022-09-06T17:59:14.997Z,100656.47
2022-09-06T18:04:10.521Z,100627.88
2022-09-06T18:09:13.656Z,100659.00
2022-09-06T18:14:11.128Z,100661.75
2022-09-06T18:19:06.878Z,100684.84
2022-09-06T18:24:00.096Z,100655.41
2022-09-06T18:28:54.360Z,100692.78
2022-09-06T18:33:47.384Z,100717.75
2022-09-06T18:38:43.508Z,100702.50
2022-09-06T18:43:39.254Z,100686.16
2022-09-06T18:48:33.643Z,100727.50
2022-09-06T18:53:27.930Z,100689.84
2022-09-06T18:58:25.493Z,100742.47
2022-09-06T19:03:19.483Z,100734.56
2022-09-06T19:08:13.892Z,100734.56
2022-09-06T19:13:08.352Z,100727.50
2022-09-06T19:18:03.503Z,100730.03
2022-09-06T19:22:57.953Z,100721.00
2022-09-06T19:27:51.004Z,100696.03
2022-09-06T19:32:47.821Z,100724.91
2022-09-06T19:37:41.749Z,100722.25
2022-09-06T19:42:35.282Z,100721.13
2022-09-06T19:47:28.339Z,100688.94
2022-09-06T19:52:21.717Z,100724.50
2022-09-06T19:57:16.121Z,100703.75
2022-09-06T20:02:10.453Z,100705.44
2022-09-06T20:07:04.632Z,100711.19
2022-09-06T20:11:59.039Z,100684.25
2022-09-06T20:16:54.114Z,100707.78
2022-09-06T20:21:48.556Z,100715.81
2022-09-06T20:26:41.140Z,100706.69
2022-09-06T20:31:35.292Z,100709.63
2022-09-06T20:36:28.858Z,100707.66
2022-09-06T20:41:24.791Z,100703.66
2022-09-06T20:46:19.985Z,100688.28
2022-09-06T20:51:16.859Z,100686.34
2022-09-06T20:56:19.356Z,100715.69
2022-09-06T21:01:18.179Z,100695.50
2022-09-06T21:06:13.496Z,100698.34
2022-09-06T21:11:07.488Z,100708.28
2022-09-06T21:16:05.234Z,100693.28
2022-09-06T21:21:00.282Z,100704.84
2022-09-06T21:25:58.584Z,100690.47
2022-09-06T21:31:05.196Z,100695.69
2022-09-06T21:36:04.226Z,100681.28
2022-09-06T21:40:59.324Z,100690.19
2022-09-06T21:45:53.284Z,100705.28
2022-09-06T21:50:48.983Z,100709.41
2022-09-06T21:55:42.269Z,100714.09
2022-09-06T22:00:35.920Z,100721.53
2022-09-06T22:05:30.452Z,100721.44
2022-09-06T22:10:25.309Z,100719.34
2022-09-06T22:15:22.489Z,100739.94
2022-09-06T22:20:17.333Z,100744.47
2022-09-06T22:25:12.024Z,100743.22
2022-09-06T22:30:08.429Z,100730.47
2022-09-06T22:35:05.024Z,100731.88
2022-09-06T22:39:59.538Z,100730.63
2022-09-06T22:44:54.687Z,100725.44
2022-09-06T22:49:50.070Z,100718.53
2022-09-06T22:54:43.502Z,100684.41
2022-09-06T22:59:38.725Z,100717.25
2022-09-06T23:04:32.877Z,100717.00
2022-09-06T23:09:26.191Z,100710.78
2022-09-06T23:14:24.684Z,100714.84
2022-09-06T23:19:18.686Z,100725.91
2022-09-06T23:24:12.636Z,100718.53
2022-09-06T23:29:09.542Z,100726.72
2022-09-06T23:34:04.107Z,100702.75
2022-09-06T23:38:58.223Z,100696.78
2022-09-06T23:43:51.529Z,100704.56
2022-09-06T23:48:45.154Z,100698.63
2022-09-06T23:53:39.229Z,100697.38
2022-09-06T23:58:32.802Z,100707.09
